createdAt,value
2023-01-15T00:00:10.286Z,7.13
2023-01-15T00:02:40.542Z,7.12
2023-01-15T00:05:10.610Z,7.09
2023-01-15T00:07:40.691Z,7.16
2023-01-15T00:10:11.816Z,7.03
2023-01-15T00:12:41.825Z,7.00
2023-01-15T00:15:14.397Z,7.13
2023-01-15T00:17:44.596Z,7.09
2023-01-15T00:20:14.652Z,7.26
2023-01-15T00:22:44.642Z,7.06
2023-01-15T00:25:33.629Z,7.26
2023-01-15T00:28:03.946Z,7.26
2023-01-15T00:30:33.985Z,7.30
2023-01-15T00:33:04.083Z,7.36
2023-01-15T00:35:34.142Z,7.40
2023-01-15T00:38:04.146Z,7.42
2023-01-15T00:40:34.127Z,7.39
2023-01-15T00:43:02.562Z,7.53
2023-01-15T00:45:30.975Z,7.48
2023-01-15T00:47:59.457Z,7.43
2023-01-15T00:50:27.901Z,7.43
2023-01-15T00:52:56.304Z,7.38
2023-01-15T00:55:25.825Z,7.47
2023-01-15T00:57:54.918Z,7.55
2023-01-15T01:00:22.182Z,7.45
2023-01-15T01:02:50.462Z,7.55
2023-01-15T01:05:18.950Z,7.79
2023-01-15T01:07:47.569Z,7.88
2023-01-15T01:10:17.537Z,7.67
2023-01-15T01:12:51.582Z,7.60
2023-01-15T01:15:23.685Z,7.66
2023-01-15T01:17:53.440Z,7.60
2023-01-15T01:20:23.086Z,7.70
2023-01-15T01:22:53.652Z,7.80
2023-01-15T01:25:23.879Z,7.98
2023-01-15T01:27:53.615Z,7.86
2023-01-15T01:30:23.460Z,7.93
2023-01-15T01:32:53.466Z,7.89
2023-01-15T01:35:23.272Z,7.85
2023-01-15T01:37:53.305Z,7.85
2023-01-15T01:40:23.465Z,7.93
2023-01-15T01:42:53.432Z,7.98
2023-01-15T01:45:33.919Z,7.88
2023-01-15T01:48:08.021Z,7.83
2023-01-15T01:50:41.893Z,7.91
2023-01-15T01:53:29.658Z,7.98
2023-01-15T01:56:01.401Z,7.94
2023-01-15T01:58:35.917Z,7.75
2023-01-15T02:01:06.856Z,7.83
2023-01-15T02:03:39.186Z,7.86
2023-01-15T02:06:15.674Z,7.80
2023-01-15T02:08:46.065Z,7.74
2023-01-15T02:11:24.022Z,7.53
2023-01-15T02:13:58.640Z,7.63
2023-01-15T02:16:47.350Z,7.62
2023-01-15T02:19:51.213Z,7.55
2023-01-15T02:23:00.761Z,7.53
2023-01-15T02:26:26.761Z,7.58
2023-01-15T02:29:02.589Z,7.51
2023-01-15T02:31:43.639Z,7.37
2023-01-15T02:34:44.630Z,7.39
2023-01-15T02:37:28.186Z,7.39
2023-01-15T02:40:05.491Z,7.38
2023-01-15T02:42:42.683Z,7.31
2023-01-15T02:45:30.811Z,7.39
2023-01-15T02:48:14.978Z,7.29
2023-01-15T02:51:02.085Z,7.23
2023-01-15T02:53:38.641Z,7.13
2023-01-15T02:56:19.343Z,7.14
2023-01-15T02:59:00.790Z,7.08
2023-01-15T03:01:44.806Z,7.07
2023-01-15T03:04:41.695Z,7.17
2023-01-15T03:07:29.538Z,7.19
2023-01-15T03:09:59.952Z,7.05
2023-01-15T03:12:54.896Z,7.02
2023-01-15T03:16:00.645Z,7.11
2023-01-15T03:18:50.571Z,7.24
2023-01-15T03:21:53.993Z,7.09
2023-01-15T03:24:54.682Z,7.03
2023-01-15T03:27:25.383Z,7.00
2023-01-15T03:30:17.152Z,7.18
2023-01-15T03:32:48.897Z,7.16
2023-01-15T03:35:57.614Z,7.10
2023-01-15T03:38:35.498Z,7.14
2023-01-15T03:41:24.204Z,7.33
2023-01-15T03:44:39.347Z,7.29
2023-01-15T03:47:54.035Z,7.29
2023-01-15T03:50:47.923Z,7.21
2023-01-15T03:53:52.796Z,7.22
2023-01-15T03:56:43.035Z,7.13
2023-01-15T03:59:30.901Z,7.07
2023-01-15T04:02:09.581Z,7.18
2023-01-15T04:04:42.308Z,7.10
2023-01-15T04:07:13.638Z,7.08
2023-01-15T04:09:44.009Z,7.05
2023-01-15T04:12:18.368Z,7.12
2023-01-15T04:14:48.447Z,7.22
2023-01-15T04:17:18.620Z,7.11
2023-01-15T04:19:48.689Z,7.12
2023-01-15T04:22:16.765Z,7.11
2023-01-15T04:24:44.014Z,6.93
2023-01-15T04:27:14.232Z,6.75
2023-01-15T04:29:44.206Z,6.75
2023-01-15T04:32:14.540Z,6.47
2023-01-15T04:34:44.620Z,6.25
2023-01-15T04:37:17.716Z,6.02
2023-01-15T04:39:47.710Z,5.71
2023-01-15T04:42:36.010Z,5.53
2023-01-15T04:45:07.141Z,5.39
2023-01-15T04:47:36.538Z,5.14
2023-01-15T04:50:07.625Z,4.95
2023-01-15T04:52:38.702Z,4.89
2023-01-15T04:55:08.553Z,4.84
2023-01-15T04:57:39.500Z,4.84
2023-01-15T05:00:10.198Z,4.77
2023-01-15T05:02:39.417Z,4.57
2023-01-15T05:05:08.693Z,4.45
2023-01-15T05:07:36.447Z,4.35
2023-01-15T05:10:05.256Z,4.57
2023-01-15T05:12:33.098Z,4.42
2023-01-15T05:15:01.581Z,4.34
2023-01-15T05:17:31.825Z,4.26
2023-01-15T05:20:01.560Z,4.20
2023-01-15T05:22:29.836Z,4.25
2023-01-15T05:24:58.277Z,4.46
2023-01-15T05:27:26.708Z,4.23
2023-01-15T05:29:56.713Z,4.20
2023-01-15T05:32:26.847Z,4.18
2023-01-15T05:34:55.083Z,4.11
2023-01-15T05:37:23.411Z,4.08
2023-01-15T05:39:52.000Z,4.26
2023-01-15T05:42:20.657Z,4.18
2023-01-15T05:44:48.838Z,4.06
2023-01-15T05:47:18.855Z,4.04
2023-01-15T05:49:48.632Z,3.96
2023-01-15T05:52:16.367Z,4.04
2023-01-15T05:54:44.400Z,4.09
2023-01-15T05:57:13.395Z,4.16
2023-01-15T05:59:43.532Z,4.10
2023-01-15T06:02:13.554Z,4.03
2023-01-15T06:04:43.537Z,4.07
2023-01-15T06:07:13.543Z,4.07
2023-01-15T06:09:44.034Z,4.04
2023-01-15T06:12:18.047Z,4.04
2023-01-15T06:14:48.099Z,4.00
2023-01-15T06:17:18.192Z,3.99
2023-01-15T06:19:48.223Z,3.98
2023-01-15T06:22:18.431Z,3.95
2023-01-15T06:24:48.627Z,4.04
2023-01-15T06:27:18.704Z,4.01
2023-01-15T06:29:48.665Z,4.19
2023-01-15T06:32:18.701Z,4.11
2023-01-15T06:34:49.917Z,4.06
2023-01-15T06:37:19.782Z,4.01
2023-01-15T06:39:49.838Z,3.97
2023-01-15T06:42:38.630Z,3.97
2023-01-15T06:45:30.995Z,4.04
2023-01-15T06:48:01.608Z,3.97
2023-01-15T06:50:31.236Z,3.93
2023-01-15T06:53:01.225Z,3.96
2023-01-15T06:55:31.235Z,3.91
2023-01-15T06:58:04.306Z,4.07
2023-01-15T07:00:33.995Z,4.05
2023-01-15T07:03:05.648Z,4.02
2023-01-15T07:05:34.560Z,4.00
2023-01-15T07:08:05.142Z,4.12
2023-01-15T07:10:36.122Z,3.99
2023-01-15T07:13:05.305Z,3.96
2023-01-15T07:15:35.477Z,3.89
2023-01-15T07:18:05.797Z,3.81
2023-01-15T07:20:35.720Z,4.00
2023-01-15T07:23:05.707Z,3.95
2023-01-15T07:25:35.761Z,4.03
2023-01-15T07:28:06.018Z,3.95
2023-01-15T07:30:36.014Z,3.88
2023-01-15T07:33:06.080Z,3.82
2023-01-15T07:35:36.936Z,3.81
2023-01-15T07:38:06.384Z,3.77
2023-01-15T07:40:36.955Z,3.77
2023-01-15T07:43:25.543Z,3.84
2023-01-15T07:46:13.407Z,3.81
2023-01-15T07:49:01.800Z,3.88
2023-01-15T07:51:31.807Z,3.97
2023-01-15T07:54:01.852Z,3.90
2023-01-15T07:56:31.965Z,3.83
2023-01-15T07:59:02.020Z,3.91
2023-01-15T08:01:30.430Z,3.94
2023-01-15T08:03:58.888Z,3.88
2023-01-15T08:06:27.293Z,3.93
2023-01-15T08:08:55.699Z,4.00
2023-01-15T08:11:42.812Z,3.83
2023-01-15T08:14:31.368Z,3.87
2023-01-15T08:17:01.894Z,3.86
2023-01-15T08:19:31.746Z,3.94
2023-01-15T08:22:01.941Z,3.88
2023-01-15T08:24:32.051Z,4.13
2023-01-15T08:27:02.088Z,4.17
2023-01-15T08:29:32.293Z,4.18
2023-01-15T08:32:03.405Z,4.12
2023-01-15T08:34:32.711Z,4.32
2023-01-15T08:37:02.750Z,4.35
2023-01-15T08:39:32.820Z,4.34
2023-01-15T08:42:02.921Z,4.14
2023-01-15T08:44:33.242Z,4.16
2023-01-15T08:47:03.387Z,4.20
2023-01-15T08:49:33.761Z,4.19
2023-01-15T08:52:03.726Z,4.14
2023-01-15T08:54:33.821Z,4.03
2023-01-15T08:57:04.128Z,4.28
2023-01-15T08:59:34.075Z,4.23
2023-01-15T09:02:04.244Z,4.35
2023-01-15T09:04:34.351Z,4.36
2023-01-15T09:07:04.116Z,4.31
2023-01-15T09:09:35.111Z,4.12
2023-01-15T09:12:05.648Z,4.07
2023-01-15T09:14:57.415Z,4.14
2023-01-15T09:17:24.589Z,4.21
2023-01-15T09:19:52.764Z,4.21
2023-01-15T09:22:21.181Z,4.19
2023-01-15T09:24:49.692Z,4.23
2023-01-15T09:27:18.472Z,4.23
2023-01-15T09:29:46.043Z,4.35
2023-01-15T09:32:13.198Z,4.36
2023-01-15T09:34:41.586Z,4.31
2023-01-15T09:37:10.410Z,4.40
2023-01-15T09:39:39.171Z,4.45
2023-01-15T09:42:46.585Z,4.57
2023-01-15T09:45:46.442Z,4.64
2023-01-15T09:48:38.569Z,4.51
2023-01-15T09:51:51.348Z,4.57
2023-01-15T09:55:14.827Z,4.64
2023-01-15T09:57:54.480Z,4.81
2023-01-15T10:00:34.880Z,4.88
2023-01-15T10:03:11.082Z,5.01
2023-01-15T10:06:13.187Z,5.05
2023-01-15T10:08:50.612Z,5.12
2023-01-15T10:12:01.638Z,5.14
2023-01-15T10:15:02.550Z,5.04
2023-01-15T10:17:48.604Z,5.31
2023-01-15T10:20:17.740Z,5.18
2023-01-15T10:23:29.025Z,5.33
2023-01-15T10:26:17.339Z,5.16
2023-01-15T10:29:15.475Z,5.26
2023-01-15T10:32:10.750Z,5.23
2023-01-15T10:35:24.500Z,5.30
2023-01-15T10:38:24.988Z,5.38
2023-01-15T10:41:15.841Z,5.41
2023-01-15T10:44:39.851Z,5.31
2023-01-15T10:47:26.370Z,5.34
2023-01-15T10:50:00.198Z,5.54
2023-01-15T10:52:44.099Z,5.35
2023-01-15T10:55:36.179Z,5.42
2023-01-15T10:58:41.431Z,5.37
2023-01-15T11:01:25.983Z,5.56
2023-01-15T11:03:54.730Z,5.60
2023-01-15T11:06:27.362Z,5.55
2023-01-15T11:09:10.414Z,5.60
2023-01-15T11:12:06.452Z,5.76
2023-01-15T11:15:02.590Z,5.59
2023-01-15T11:18:02.171Z,5.74
2023-01-15T11:20:45.573Z,5.77
2023-01-15T11:23:21.881Z,5.79
2023-01-15T11:26:00.363Z,5.63
2023-01-15T11:28:46.555Z,5.62
2023-01-15T11:31:17.653Z,5.65
2023-01-15T11:34:04.048Z,5.60
2023-01-15T11:36:34.747Z,5.67
2023-01-15T11:39:04.869Z,5.59
2023-01-15T11:41:54.532Z,5.80
2023-01-15T11:44:43.307Z,5.78
2023-01-15T11:47:37.447Z,5.71
2023-01-15T11:50:38.344Z,5.79
2023-01-15T11:53:29.579Z,5.71
2023-01-15T11:56:11.973Z,5.65
2023-01-15T11:58:53.383Z,5.64
2023-01-15T12:01:37.586Z,5.65
2023-01-15T12:04:28.214Z,5.74
2023-01-15T12:07:02.082Z,5.60
2023-01-15T12:09:55.950Z,5.66
2023-01-15T12:12:41.720Z,5.72
2023-01-15T12:15:20.102Z,5.63
2023-01-15T12:18:28.909Z,5.58
2023-01-15T12:21:28.507Z,5.56
2023-01-15T12:24:52.147Z,5.81
2023-01-15T12:27:52.578Z,5.83
2023-01-15T12:30:42.090Z,5.76
2023-01-15T12:33:39.679Z,5.73
2023-01-15T12:36:44.648Z,5.65
2023-01-15T12:39:29.527Z,5.78
2023-01-15T12:42:30.214Z,5.97
2023-01-15T12:45:14.483Z,5.88
2023-01-15T12:48:02.396Z,5.84
2023-01-15T12:50:45.070Z,5.83
2023-01-15T12:53:51.899Z,5.62
2023-01-15T12:57:27.083Z,5.66
2023-01-15T13:00:18.253Z,5.58
2023-01-15T13:03:19.623Z,5.57
2023-01-15T13:05:57.705Z,5.65
2023-01-15T13:09:04.218Z,5.67
2023-01-15T13:11:34.339Z,5.54
2023-01-15T13:14:15.152Z,5.55
2023-01-15T13:17:54.046Z,5.71
2023-01-15T13:20:51.492Z,5.65
2023-01-15T13:24:13.792Z,5.68
2023-01-15T13:27:12.456Z,5.56
2023-01-15T13:30:37.755Z,5.42
2023-01-15T13:33:48.887Z,5.35
2023-01-15T13:36:45.692Z,5.40
2023-01-15T13:39:28.587Z,5.35
2023-01-15T13:42:17.281Z,5.33
2023-01-15T13:44:54.231Z,5.42
2023-01-15T13:47:32.802Z,5.40
2023-01-15T13:50:33.339Z,5.45
2023-01-15T13:53:15.082Z,5.37
2023-01-15T13:55:57.188Z,5.17
2023-01-15T13:58:35.598Z,5.12
2023-01-15T14:01:20.789Z,5.12
2023-01-15T14:04:18.082Z,5.31
2023-01-15T14:06:52.775Z,5.17
2023-01-15T14:09:22.628Z,5.25
2023-01-15T14:12:28.667Z,5.34
2023-01-15T14:15:57.118Z,5.26
2023-01-15T14:19:11.274Z,5.06
2023-01-15T14:22:48.098Z,4.96
2023-01-15T14:26:05.427Z,4.86
2023-01-15T14:28:59.296Z,4.83
2023-01-15T14:31:57.262Z,4.84
2023-01-15T14:34:34.349Z,4.85
2023-01-15T14:37:52.965Z,4.69
2023-01-15T14:40:32.596Z,4.73
2023-01-15T14:43:20.688Z,4.74
2023-01-15T14:45:53.005Z,4.67
2023-01-15T14:48:28.746Z,4.75
2023-01-15T14:51:22.207Z,4.55
2023-01-15T14:54:03.185Z,4.48
2023-01-15T14:56:49.210Z,4.52
2023-01-15T14:59:26.436Z,4.55
2023-01-15T15:02:06.074Z,4.57
2023-01-15T15:04:59.091Z,4.53
2023-01-15T15:07:48.642Z,4.58
2023-01-15T15:10:41.570Z,4.43
2023-01-15T15:13:47.447Z,4.27
2023-01-15T15:16:28.172Z,4.22
2023-01-15T15:19:35.511Z,4.21
2023-01-15T15:22:17.768Z,4.19
2023-01-15T15:24:55.525Z,4.23
2023-01-15T15:27:26.733Z,4.24
2023-01-15T15:30:08.064Z,4.18
2023-01-15T15:32:41.250Z,4.11
2023-01-15T15:35:30.172Z,4.16
2023-01-15T15:38:06.611Z,3.97
2023-01-15T15:40:38.353Z,3.93
2023-01-15T15:43:43.596Z,3.81
2023-01-15T15:46:51.710Z,3.84
2023-01-15T15:49:22.227Z,3.79
2023-01-15T15:51:54.651Z,3.93
2023-01-15T15:54:30.783Z,4.07
2023-01-15T15:57:18.857Z,3.92
2023-01-15T15:59:52.701Z,3.85
2023-01-15T16:02:41.511Z,3.80
2023-01-15T16:05:28.985Z,3.76
2023-01-15T16:08:19.738Z,3.72
2023-01-15T16:11:00.285Z,3.51
2023-01-15T16:13:46.068Z,3.67
2023-01-15T16:16:19.574Z,3.66
2023-01-15T16:19:02.557Z,3.50
2023-01-15T16:21:39.716Z,3.53
2023-01-15T16:24:26.806Z,3.46
2023-01-15T16:27:17.173Z,3.76
2023-01-15T16:29:54.693Z,3.76
2023-01-15T16:32:33.186Z,3.72
2023-01-15T16:35:20.947Z,3.55
2023-01-15T16:38:00.660Z,3.39
2023-01-15T16:40:39.617Z,3.53
2023-01-15T16:43:25.968Z,3.70
2023-01-15T16:46:22.555Z,3.56
2023-01-15T16:49:33.626Z,3.55
2023-01-15T16:52:50.461Z,3.64
2023-01-15T16:56:01.409Z,3.42
2023-01-15T16:58:41.462Z,3.46
2023-01-15T17:01:42.867Z,3.62
2023-01-15T17:04:35.904Z,3.60
2023-01-15T17:07:22.940Z,3.45
2023-01-15T17:10:00.112Z,3.51
2023-01-15T17:12:44.023Z,3.52
2023-01-15T17:15:16.799Z,3.67
2023-01-15T17:17:51.329Z,3.69
2023-01-15T17:20:28.021Z,3.73
2023-01-15T17:22:57.350Z,3.62
2023-01-15T17:25:35.420Z,3.70
2023-01-15T17:28:06.253Z,3.61
2023-01-15T17:30:36.231Z,3.63
2023-01-15T17:33:10.529Z,3.63
2023-01-15T17:35:43.219Z,3.62
2023-01-15T17:38:13.955Z,3.73
2023-01-15T17:40:44.377Z,3.80
2023-01-15T17:43:16.635Z,3.74
2023-01-15T17:45:45.996Z,3.71
2023-01-15T17:48:18.474Z,3.73
2023-01-15T17:50:48.693Z,3.72
2023-01-15T17:53:18.392Z,3.76
2023-01-15T17:56:06.784Z,3.84
2023-01-15T17:58:55.087Z,4.00
2023-01-15T18:01:49.017Z,3.86
2023-01-15T18:04:51.893Z,3.81
2023-01-15T18:07:28.076Z,3.73
2023-01-15T18:09:56.609Z,3.68
2023-01-15T18:12:26.650Z,3.72
2023-01-15T18:14:56.621Z,3.80
2023-01-15T18:17:26.849Z,3.74
2023-01-15T18:19:55.857Z,3.70
2023-01-15T18:22:23.474Z,3.70
2023-01-15T18:24:51.824Z,3.65
2023-01-15T18:27:20.216Z,3.65
2023-01-15T18:29:48.885Z,3.64
2023-01-15T18:32:17.201Z,3.76
2023-01-15T18:34:45.675Z,3.71
2023-01-15T18:37:14.142Z,3.78
2023-01-15T18:39:42.622Z,3.83
2023-01-15T18:42:13.994Z,3.89
2023-01-15T18:45:02.409Z,3.87
2023-01-15T18:47:31.865Z,3.77
2023-01-15T18:50:01.984Z,3.74
2023-01-15T18:52:50.265Z,3.81
2023-01-15T18:55:26.824Z,3.87
2023-01-15T18:57:56.945Z,3.77
2023-01-15T19:00:26.851Z,3.87
2023-01-15T19:02:56.679Z,3.66
2023-01-15T19:05:26.724Z,3.71
2023-01-15T19:07:56.352Z,3.74
2023-01-15T19:10:26.176Z,3.85
2023-01-15T19:12:56.176Z,3.78
2023-01-15T19:15:44.385Z,3.80
2023-01-15T19:18:32.446Z,3.80
2023-01-15T19:21:08.740Z,3.74
2023-01-15T19:23:38.095Z,3.64
2023-01-15T19:26:08.263Z,3.66
2023-01-15T19:28:38.379Z,3.92
2023-01-15T19:31:29.040Z,3.92
2023-01-15T19:34:31.116Z,3.78
2023-01-15T19:36:50.202Z,3.95
2023-01-15T19:39:20.487Z,3.91
2023-01-15T19:42:09.858Z,3.98
2023-01-15T19:44:58.750Z,4.00
2023-01-15T19:48:00.166Z,3.95
2023-01-15T19:50:43.559Z,4.01
2023-01-15T19:53:13.284Z,3.75
2023-01-15T19:55:45.811Z,3.73
2023-01-15T19:58:16.570Z,3.91
2023-01-15T20:00:48.779Z,3.78
2023-01-15T20:03:17.638Z,3.83
2023-01-15T20:05:47.061Z,3.78
2023-01-15T20:08:17.643Z,3.78
2023-01-15T20:10:51.219Z,3.67
2023-01-15T20:13:42.957Z,3.75
2023-01-15T20:16:20.975Z,3.82
2023-01-15T20:18:53.317Z,3.76
2023-01-15T20:21:22.338Z,3.62
2023-01-15T20:23:52.098Z,3.69
2023-01-15T20:26:24.369Z,3.87
2023-01-15T20:28:54.579Z,3.75
2023-01-15T20:31:24.348Z,3.73
2023-01-15T20:33:55.671Z,3.64
2023-01-15T20:36:25.838Z,3.68
2023-01-15T20:38:55.407Z,3.62
2023-01-15T20:41:43.830Z,3.58
2023-01-15T20:44:32.361Z,3.69
2023-01-15T20:47:21.980Z,3.78
2023-01-15T20:49:52.045Z,3.75
2023-01-15T20:52:21.925Z,3.69
2023-01-15T20:54:51.654Z,3.72
2023-01-15T20:57:21.520Z,3.53
2023-01-15T20:59:51.198Z,3.53
2023-01-15T21:02:20.984Z,3.42
2023-01-15T21:04:50.912Z,3.63
2023-01-15T21:07:20.674Z,3.65
2023-01-15T21:09:50.828Z,3.75
2023-01-15T21:12:20.485Z,3.83
2023-01-15T21:14:50.284Z,3.88
2023-01-15T21:17:19.895Z,3.86
2023-01-15T21:19:49.970Z,3.74
2023-01-15T21:22:19.954Z,3.78
2023-01-15T21:24:51.543Z,3.76
2023-01-15T21:27:21.129Z,4.01
2023-01-15T21:29:49.544Z,3.79
2023-01-15T21:32:18.052Z,3.77
2023-01-15T21:34:46.321Z,3.74
2023-01-15T21:37:17.504Z,3.75
2023-01-15T21:39:47.996Z,3.89
2023-01-15T21:42:40.045Z,3.88
2023-01-15T21:45:11.632Z,3.61
2023-01-15T21:47:41.695Z,3.57
2023-01-15T21:50:11.761Z,3.55
2023-01-15T21:52:41.526Z,3.60
2023-01-15T21:55:13.215Z,3.61
2023-01-15T21:57:41.391Z,3.61
2023-01-15T22:00:13.078Z,3.65
2023-01-15T22:02:43.078Z,3.78
2023-01-15T22:05:13.018Z,3.63
2023-01-15T22:07:42.710Z,3.73
2023-01-15T22:10:12.622Z,3.66
2023-01-15T22:12:43.258Z,3.53
2023-01-15T22:15:15.716Z,3.60
2023-01-15T22:17:51.471Z,3.55
2023-01-15T22:20:18.631Z,3.42
2023-01-15T22:22:48.834Z,3.34
2023-01-15T22:25:18.871Z,3.22
2023-01-15T22:27:46.719Z,3.21
2023-01-15T22:30:16.694Z,3.23
2023-01-15T22:32:45.956Z,3.13
2023-01-15T22:35:15.677Z,3.20
2023-01-15T22:37:45.531Z,3.14
2023-01-15T22:40:15.583Z,3.04
2023-01-15T22:42:45.570Z,3.17
2023-01-15T22:45:15.448Z,3.20
2023-01-15T22:47:45.101Z,3.15
2023-01-15T22:50:15.073Z,3.19
2023-01-15T22:52:45.071Z,3.06
2023-01-15T22:55:14.825Z,3.12
2023-01-15T22:57:47.495Z,3.20
2023-01-15T23:00:18.049Z,3.30
2023-01-15T23:03:04.965Z,3.25
2023-01-15T23:05:39.249Z,3.12
2023-01-15T23:08:09.532Z,3.20
2023-01-15T23:10:47.662Z,3.30
2023-01-15T23:13:16.767Z,3.25
2023-01-15T23:15:45.148Z,3.33
2023-01-15T23:18:13.544Z,3.36
2023-01-15T23:20:42.000Z,3.28
2023-01-15T23:23:10.945Z,3.32
2023-01-15T23:25:40.952Z,3.17
2023-01-15T23:28:10.527Z,3.10
2023-01-15T23:30:40.584Z,3.08
2023-01-15T23:33:10.520Z,3.13
2023-01-15T23:35:40.388Z,3.10
2023-01-15T23:38:10.120Z,3.18
2023-01-15T23:40:42.252Z,3.23
2023-01-15T23:43:35.542Z,3.24
2023-01-15T23:46:30.687Z,3.16
2023-01-15T23:49:00.209Z,2.96
2023-01-15T23:51:29.229Z,2.95
2023-01-15T23:54:00.181Z,2.89
2023-01-15T23:56:31.846Z,2.77
2023-01-15T23:59:01.932Z,2.76
